Time;durP1;ratioP1;P1;durP2;ratioP2;P2;SDS_P1;SDS_P2;PMS_P1;PMS_P2;Temp;Humidity;BMP_temperature;BMP_pressure;BME280_temperature;BME280_humidity;BME280_pressure;Samples;Min_cycle;Max_cycle;Signal;HPM_P1;HPM_P2
2023/12/23 00:02:14;;;;;;;28.58;8.57;;;;;;;;;;6100557;23;20025;-89
2023/12/23 00:27:28;;;;;;;17.80;5.85;;;;;;;;;;6123525;23;20021;-90
2023/12/23 00:30:13;;;;;;;18.35;5.95;;;;;;;;;;6101581;23;20471;-89
2023/12/23 00:33:05;;;;;;;14.60;6.28;;;;;;;;;;6101715;23;20022;-89
2023/12/23 00:42:58;;;;;;;17.55;5.97;;;;;;;;;;6123048;23;20076;-87
2023/12/23 00:49:44;;;;;;;16.98;5.68;;;;;;;;;;6123079;23;20119;-89
2023/12/23 00:52:31;;;;;;;13.38;4.75;;;;;;;;;;6101006;23;20040;-88
2023/12/23 00:55:16;;;;;;;19.52;5.38;;;;;;;;;;6101209;23;20021;-87
2023/12/23 00:58:00;;;;;;;17.23;5.60;;;;;;;;;;6101405;23;20056;-89
2023/12/23 01:04:19;;;;;;;18.50;5.43;;;;;;;;;;6123697;23;20333;-88
2023/12/23 01:07:03;;;;;;;19.17;7.03;;;;;;;;;;6101545;23;20440;-89
2023/12/23 01:09:51;;;;;;;14.52;5.00;;;;;;;;;;6125041;23;20025;-89
2023/12/23 01:12:47;;;;;;;;;;;;;;;;;;;;;
2023/12/23 01:15:53;;;;;;;9.43;4.72;;;;;;;;;;6125478;23;20021;-88
2023/12/23 01:18:42;;;;;;;20.67;5.55;;;;;;;;;;6124827;23;20020;-88
2023/12/23 01:21:30;;;;;;;13.98;5.35;;;;;;;;;;6103178;23;20053;-89
2023/12/23 01:24:30;;;;;;;12.10;4.78;;;;;;;;;;6103239;23;20535;-87
2023/12/23 01:27:32;;;;;;;16.30;5.47;;;;;;;;;;6103480;23;20455;-88
2023/12/23 01:30:22;;;;;;;10.35;4.88;;;;;;;;;;6102737;23;20071;-88
2023/12/23 01:36:52;;;;;;;13.35;5.03;;;;;;;;;;6125390;23;20063;-90
2023/12/23 01:43:13;;;;;;;14.73;5.28;;;;;;;;;;6126104;23;20057;-90
2023/12/23 01:49:51;;;;;;;13.45;5.32;;;;;;;;;;6157908;23;20020;-89
2023/12/23 01:52:40;;;;;;;13.73;4.93;;;;;;;;;;6134319;23;20020;-87
2023/12/23 01:55:35;;;;;;;17.58;5.45;;;;;;;;;;6134561;23;20036;-89
2023/12/23 02:02:02;;;;;;;12.30;4.00;;;;;;;;;;6156205;23;20534;-89
2023/12/23 02:05:09;;;;;;;;;;;;;;;;;;6094115;23;20290;-88
2023/12/23 02:07:55;;;;;;;12.68;4.75;;;;;;;;;;6095763;23;19995;-90
2023/12/23 02:10:47;;;;;;;11.80;5.32;;;;;;;;;;6114354;23;20022;-91
2023/12/23 02:17:06;;;;;;;16.40;5.10;;;;;;;;;;6094915;23;20025;-88
2023/12/23 02:19:57;;;;;;;11.27;4.97;;;;;;;;;;6093914;23;20037;-90
2023/12/23 02:22:42;;;;;;;13.55;4.88;;;;;;;;;;6114461;23;20063;-91
2023/12/23 02:25:26;;;;;;;8.88;4.30;;;;;;;;;;6115902;23;20086;-89
2023/12/23 02:28:12;;;;;;;18.05;4.70;;;;;;;;;;6116047;23;20053;-89
2023/12/23 02:31:00;;;;;;;16.77;4.97;;;;;;;;;;6115766;23;20021;-89
2023/12/23 02:33:45;;;;;;;10.38;4.07;;;;;;;;;;6113411;23;20389;-89
2023/12/23 02:36:29;;;;;;;10.00;3.28;;;;;;;;;;6113213;23;20037;-88
2023/12/23 02:39:15;;;;;;;6.55;3.67;;;;;;;;;;6112243;23;20060;-88
2023/12/23 02:42:02;;;;;;;11.40;4.05;;;;;;;;;;6092031;23;20479;-87
2023/12/23 02:44:46;;;;;;;15.98;4.57;;;;;;;;;;6109193;23;20489;-88
2023/12/23 02:47:30;;;;;;;12.35;3.90;;;;;;;;;;6123417;23;20080;-89
2023/12/23 02:50:19;;;;;;;15.65;4.22;;;;;;;;;;6101568;23;20037;-88
2023/12/23 02:56:45;;;;;;;13.95;3.60;;;;;;;;;;6124617;23;20055;-89
2023/12/23 02:59:29;;;;;;;13.52;4.28;;;;;;;;;;6101846;23;20040;-89
2023/12/23 03:02:16;;;;;;;6.40;3.92;;;;;;;;;;6122218;23;20025;-89
2023/12/23 03:05:00;;;;;;;10.35;3.53;;;;;;;;;;6101433;23;20032;-88
2023/12/23 03:07:51;;;;;;;11.95;3.80;;;;;;;;;;6102478;23;20052;-88
2023/12/23 03:17:49;;;;;;;9.18;4.07;;;;;;;;;;6124451;23;20016;-91
2023/12/23 03:20:51;;;;;;;;;;;;;;;;;;;;;
2023/12/23 03:23:46;;;;;;;10.50;4.30;;;;;;;;;;6123826;23;20024;-90
2023/12/23 03:26:35;;;;;;;14.57;4.53;;;;;;;;;;6123429;23;20021;-89
2023/12/23 03:29:27;;;;;;;8.10;3.90;;;;;;;;;;6102913;23;20025;-89
2023/12/23 03:35:58;;;;;;;9.38;4.75;;;;;;;;;;6125431;23;20036;-88
2023/12/23 03:42:08;;;;;;;12.48;4.30;;;;;;;;;;6124816;23;20028;-92
2023/12/23 03:45:16;;;;;;;5.85;4.32;;;;;;;;;;6123271;23;20028;-90
2023/12/23 03:51:21;;;;;;;4.80;3.55;;;;;;;;;;6123809;23;20359;-88
2023/12/23 03:54:07;;;;;;;9.35;3.30;;;;;;;;;;6122107;23;20032;-89
2023/12/23 03:57:17;;;;;;;7.25;3.70;;;;;;;;;;6100585;23;20021;-89
2023/12/23 04:00:03;;;;;;;6.38;3.47;;;;;;;;;;6100846;23;20025;-90
2023/12/23 04:03:04;;;;;;;6.15;3.35;;;;;;;;;;6100894;23;20021;-88
2023/12/23 04:06:03;;;;;;;6.10;3.30;;;;;;;;;;6101240;23;20517;-90
2023/12/23 04:08:53;;;;;;;7.28;3.75;;;;;;;;;;6123237;23;20020;-89
2023/12/23 04:11:40;;;;;;;10.10;3.60;;;;;;;;;;6101039;23;20021;-88
2023/12/23 04:14:25;;;;;;;11.15;3.88;;;;;;;;;;6102271;23;20021;-90
2023/12/23 04:17:20;;;;;;;11.55;4.13;;;;;;;;;;6100847;23;20494;-90
2023/12/23 04:20:08;;;;;;;12.60;4.13;;;;;;;;;;6100796;23;20129;-89
2023/12/23 04:22:55;;;;;;;10.35;3.50;;;;;;;;;;6121575;23;20025;-89
2023/12/23 04:25:42;;;;;;;9.00;3.47;;;;;;;;;;6101151;23;20020;-88
2023/12/23 04:28:26;;;;;;;9.18;3.88;;;;;;;;;;6121967;23;20024;-89
2023/12/23 04:31:13;;;;;;;11.13;4.00;;;;;;;;;;6101491;23;20024;-89
2023/12/23 04:34:04;;;;;;;8.82;4.05;;;;;;;;;;6101115;23;20017;-87
2023/12/23 04:37:14;;;;;;;16.20;4.47;;;;;;;;;;6101096;23;20020;-90
2023/12/23 04:40:33;;;;;;;11.70;3.58;;;;;;;;;;6102351;23;20521;-88
2023/12/23 04:43:20;;;;;;;9.50;3.35;;;;;;;;;;6099215;23;20384;-86
2023/12/23 04:46:05;;;;;;;10.30;3.28;;;;;;;;;;6099386;23;20025;-87
2023/12/23 04:48:53;;;;;;;8.23;3.33;;;;;;;;;;6098851;23;20093;-88
2023/12/23 04:51:45;;;;;;;12.88;3.50;;;;;;;;;;6119914;23;20076;-87
2023/12/23 04:54:29;;;;;;;11.50;3.30;;;;;;;;;;6098880;23;20021;-86
2023/12/23 04:57:21;;;;;;;7.68;3.00;;;;;;;;;;6099332;23;20033;-86
2023/12/23 05:00:25;;;;;;;8.30;3.30;;;;;;;;;;6119850;23;20353;-87
2023/12/23 05:03:11;;;;;;;13.95;3.88;;;;;;;;;;6099546;23;20024;-89
2023/12/23 05:05:59;;;;;;;8.30;3.22;;;;;;;;;;6099279;23;20101;-87
2023/12/23 05:08:43;;;;;;;17.70;3.30;;;;;;;;;;6099380;23;20093;-87
2023/12/23 05:11:27;;;;;;;10.48;3.33;;;;;;;;;;6121495;23;20053;-88
2023/12/23 05:14:16;;;;;;;7.75;3.35;;;;;;;;;;6099395;23;20084;-88
2023/12/23 05:17:03;;;;;;;6.53;2.90;;;;;;;;;;6120900;23;20510;-87
2023/12/23 05:19:50;;;;;;;5.85;2.58;;;;;;;;;;6099132;23;20020;-88
2023/12/23 05:22:45;;;;;;;13.45;3.45;;;;;;;;;;6099298;23;20017;-86
2023/12/23 05:25:30;;;;;;;9.48;2.83;;;;;;;;;;6099462;23;20016;-89
2023/12/23 05:28:14;;;;;;;10.30;3.00;;;;;;;;;;6120648;23;20020;-87
2023/12/23 05:31:01;;;;;;;7.00;2.75;;;;;;;;;;6100032;23;20024;-89
2023/12/23 05:34:09;;;;;;;8.93;2.53;;;;;;;;;;6100457;23;20032;-87
2023/12/23 05:36:55;;;;;;;15.70;3.60;;;;;;;;;;6100965;23;20063;-86
2023/12/23 05:39:47;;;;;;;12.00;3.00;;;;;;;;;;6120829;23;20475;-88
2023/12/23 05:42:31;;;;;;;18.77;3.08;;;;;;;;;;6120419;23;20017;-89
2023/12/23 05:45:15;;;;;;;12.40;3.75;;;;;;;;;;6099709;23;20105;-88
2023/12/23 05:47:59;;;;;;;11.82;3.17;;;;;;;;;;6099755;23;20021;-90
2023/12/23 05:50:45;;;;;;;10.07;3.35;;;;;;;;;;6120078;23;20024;-90
2023/12/23 05:53:30;;;;;;;10.90;3.08;;;;;;;;;;6119455;23;20509;-86
2023/12/23 05:56:14;;;;;;;9.93;3.00;;;;;;;;;;6098774;23;20021;-87
2023/12/23 05:58:58;;;;;;;8.63;3.45;;;;;;;;;;6121256;23;20116;-87
2023/12/23 06:01:42;;;;;;;16.88;3.30;;;;;;;;;;6100552;23;20060;-90
2023/12/23 06:04:32;;;;;;;7.03;2.72;;;;;;;;;;6100663;23;20080;-87
2023/12/23 06:07:16;;;;;;;7.05;2.90;;;;;;;;;;6101053;23;20068;-89
2023/12/23 06:10:00;;;;;;;8.02;3.33;;;;;;;;;;6100792;23;20063;-88
2023/12/23 06:12:44;;;;;;;11.57;3.42;;;;;;;;;;6099611;23;20021;-88
2023/12/23 06:15:28;;;;;;;6.85;3.30;;;;;;;;;;6100127;23;20020;-88
2023/12/23 06:18:12;;;;;;;10.20;3.53;;;;;;;;;;6099242;23;20017;-89
2023/12/23 06:20:57;;;;;;;11.23;2.88;;;;;;;;;;6099245;23;20028;-88
2023/12/23 06:23:41;;;;;;;7.85;3.20;;;;;;;;;;6099151;23;20099;-87
2023/12/23 06:26:25;;;;;;;8.15;3.05;;;;;;;;;;6100024;23;20494;-88
2023/12/23 06:29:09;;;;;;;7.95;2.63;;;;;;;;;;6099640;23;20464;-88
2023/12/23 06:31:53;;;;;;;9.85;3.70;;;;;;;;;;6122239;23;20018;-90
2023/12/23 06:34:37;;;;;;;6.20;2.80;;;;;;;;;;6101250;23;20017;-89
2023/12/23 06:37:21;;;;;;;4.63;2.33;;;;;;;;;;6100521;23;20017;-88
2023/12/23 06:40:06;;;;;;;9.32;2.22;;;;;;;;;;6121474;23;20025;-88
2023/12/23 06:42:50;;;;;;;6.82;2.40;;;;;;;;;;6098919;23;20460;-88
2023/12/23 06:45:34;;;;;;;6.43;2.35;;;;;;;;;;6099290;23;20025;-89
2023/12/23 06:48:17;;;;;;;6.88;2.15;;;;;;;;;;6099904;23;20067;-88
2023/12/23 06:51:03;;;;;;;9.10;2.28;;;;;;;;;;6099725;23;20024;-90
2023/12/23 06:54:14;;;;;;;4.78;2.30;;;;;;;;;;6099275;23;20020;-88
2023/12/23 06:57:04;;;;;;;13.20;2.90;;;;;;;;;;6098952;23;20017;-89
2023/12/23 06:59:48;;;;;;;3.60;2.10;;;;;;;;;;6120333;23;20025;-89
2023/12/23 07:02:32;;;;;;;3.83;2.15;;;;;;;;;;6099016;23;20033;-88
2023/12/23 07:05:24;;;;;;;2.67;1.90;;;;;;;;;;6100064;23;20009;-89
2023/12/23 07:08:08;;;;;;;5.30;2.38;;;;;;;;;;6122854;23;20020;-89
2023/12/23 07:10:52;;;;;;;4.07;2.10;;;;;;;;;;6120092;23;20363;-89
2023/12/23 07:13:37;;;;;;;7.95;2.25;;;;;;;;;;6120848;23;20439;-88
2023/12/23 07:16:21;;;;;;;6.35;2.17;;;;;;;;;;6098590;23;20144;-88
2023/12/23 07:19:05;;;;;;;4.90;1.80;;;;;;;;;;6121300;23;20374;-87
2023/12/23 07:22:02;;;;;;;7.68;1.95;;;;;;;;;;6099517;23;20021;-88
2023/12/23 07:24:46;;;;;;;5.65;1.92;;;;;;;;;;6121211;23;20056;-89
2023/12/23 07:27:43;;;;;;;5.70;2.40;;;;;;;;;;6099738;23;20021;-89
2023/12/23 07:30:52;;;;;;;3.72;1.90;;;;;;;;;;6120519;23;20021;-88
2023/12/23 07:33:36;;;;;;;5.88;1.85;;;;;;;;;;6100312;23;20101;-89
2023/12/23 07:36:20;;;;;;;6.05;2.65;;;;;;;;;;6120326;23;20052;-88
2023/12/23 07:39:06;;;;;;;11.60;2.20;;;;;;;;;;6100043;23;20020;-88
2023/12/23 07:42:05;;;;;;;3.80;2.28;;;;;;;;;;6123526;23;20352;-89
2023/12/23 07:45:15;;;;;;;6.22;2.10;;;;;;;;;;6121419;23;20521;-89
2023/12/23 07:47:59;;;;;;;1.92;1.83;;;;;;;;;;6101495;23;20083;-90
2023/12/23 07:51:06;;;;;;;12.77;2.90;;;;;;;;;;6102505;23;20056;-89
2023/12/23 07:53:55;;;;;;;4.95;2.60;;;;;;;;;;6100626;23;20088;-92
2023/12/23 07:56:40;;;;;;;6.22;2.63;;;;;;;;;;6101740;23;20021;-90
2023/12/23 07:59:24;;;;;;;5.03;2.45;;;;;;;;;;6101917;23;20068;-89
2023/12/23 08:02:08;;;;;;;8.48;2.40;;;;;;;;;;6101660;23;20048;-89
2023/12/23 08:04:52;;;;;;;6.63;2.65;;;;;;;;;;6122933;23;20028;-89
2023/12/23 08:07:41;;;;;;;4.82;2.63;;;;;;;;;;6099045;23;20073;-89
2023/12/23 08:10:26;;;;;;;7.40;2.95;;;;;;;;;;6098844;23;20021;-90
2023/12/23 08:13:09;;;;;;;5.35;2.55;;;;;;;;;;6098603;23;20668;-87
2023/12/23 08:15:53;;;;;;;10.43;3.03;;;;;;;;;;6097979;23;20032;-87
2023/12/23 08:18:40;;;;;;;7.22;2.47;;;;;;;;;;6098174;23;20020;-88
2023/12/23 08:21:26;;;;;;;4.68;2.15;;;;;;;;;;6098674;23;20040;-88
2023/12/23 08:24:11;;;;;;;4.43;3.08;;;;;;;;;;6099380;23;20076;-86
2023/12/23 08:26:57;;;;;;;11.57;2.13;;;;;;;;;;6100264;23;20021;-86
2023/12/23 08:29:41;;;;;;;5.28;2.30;;;;;;;;;;6099117;23;20132;-87
2023/12/23 08:32:26;;;;;;;5.32;1.83;;;;;;;;;;6122351;23;20080;-91
2023/12/23 08:35:10;;;;;;;6.10;2.00;;;;;;;;;;6101439;23;20021;-87
2023/12/23 08:37:54;;;;;;;4.97;2.42;;;;;;;;;;6101480;23;20021;-88
2023/12/23 08:40:49;;;;;;;4.78;2.40;;;;;;;;;;6120400;23;20106;-89
2023/12/23 08:43:34;;;;;;;2.85;2.00;;;;;;;;;;6080599;23;20103;-86
2023/12/23 08:53:52;;;;;;;2.72;2.00;;;;;;;;;;6077072;23;20028;-86
2023/12/23 09:04:19;;;;;;;3.47;2.45;;;;;;;;;;6065239;23;20026;-90
2023/12/23 09:11:03;;;;;;;3.60;1.92;;;;;;;;;;6071268;23;20022;-91
2023/12/23 14:55:40;;;;;;;3.33;2.33;;;;;;;;;;6127161;23;20017;-89
2023/12/23 14:58:24;;;;;;;3.90;2.20;;;;;;;;;;6195911;23;20453;-87
2023/12/23 15:40:59;;;;;;;4.35;2.20;;;;;;;;;;6087182;23;20100;-87
2023/12/23 16:09:10;;;;;;;3.60;2.90;;;;;;;;;;6129786;23;20044;-88
2023/12/23 16:15:46;;;;;;;4.57;3.40;;;;;;;;;;6038637;23;20534;-88
2023/12/23 16:18:42;;;;;;;5.35;4.57;;;;;;;;;;6030010;23;20407;-89
2023/12/23 16:21:44;;;;;;;7.28;3.92;;;;;;;;;;6019144;23;20070;-89
2023/12/23 16:24:54;;;;;;;4.22;3.58;;;;;;;;;;6115032;23;20097;-84
2023/12/23 16:27:38;;;;;;;4.13;3.05;;;;;;;;;;6135924;22;20033;-85
2023/12/23 16:31:00;;;;;;;4.65;2.92;;;;;;;;;;6195747;22;20016;-85
2023/12/23 16:33:45;;;;;;;4.15;3.08;;;;;;;;;;6128150;23;20185;-85
2023/12/23 16:36:31;;;;;;;4.70;2.85;;;;;;;;;;6150242;23;20056;-86
2023/12/23 16:39:23;;;;;;;6.35;2.90;;;;;;;;;;6128960;23;20071;-83
2023/12/23 16:42:10;;;;;;;2.83;2.63;;;;;;;;;;6128321;23;20076;-85
2023/12/23 16:44:55;;;;;;;3.00;2.80;;;;;;;;;;6127628;23;20025;-86
2023/12/23 16:47:41;;;;;;;5.13;2.90;;;;;;;;;;6149000;23;20075;-86
2023/12/23 16:50:25;;;;;;;2.80;2.55;;;;;;;;;;6128007;23;20021;-82
2023/12/23 16:53:09;;;;;;;4.63;3.20;;;;;;;;;;6127644;23;21100;-84
2023/12/23 16:55:55;;;;;;;3.63;3.08;;;;;;;;;;6127597;23;20024;-82
2023/12/23 16:58:40;;;;;;;3.80;3.42;;;;;;;;;;6130108;23;20016;-90
2023/12/23 17:01:33;;;;;;;8.13;3.50;;;;;;;;;;6133246;23;20092;-89
2023/12/23 17:04:17;;;;;;;3.83;3.40;;;;;;;;;;6133607;23;20025;-89
2023/12/23 17:07:09;;;;;;;3.28;3.08;;;;;;;;;;6129490;23;20021;-83
2023/12/23 17:09:53;;;;;;;4.00;2.92;;;;;;;;;;6129171;23;20471;-87
2023/12/23 17:12:37;;;;;;;4.10;3.60;;;;;;;;;;6129628;23;20151;-86
2023/12/23 17:15:21;;;;;;;3.35;3.13;;;;;;;;;;6131331;23;20016;-88
2023/12/23 17:18:11;;;;;;;8.25;5.25;;;;;;;;;;6153963;23;20467;-88
2023/12/23 17:24:09;;;;;;;31.60;22.00;;;;;;;;;;6152502;23;20028;-86
2023/12/23 17:27:00;;;;;;;30.13;20.27;;;;;;;;;;6152673;23;20080;-87
2023/12/23 17:30:10;;;;;;;10.23;7.53;;;;;;;;;;6132757;23;20024;-89
2023/12/23 17:33:11;;;;;;;8.35;7.65;;;;;;;;;;6130557;23;20191;-88
2023/12/23 17:36:29;;;;;;;5.90;5.30;;;;;;;;;;6152335;23;20036;-87
2023/12/23 17:43:06;;;;;;;6.47;5.90;;;;;;;;;;6091366;23;20032;-89
2023/12/23 17:56:34;;;;;;;6.63;5.70;;;;;;;;;;6152862;23;20016;-87
2023/12/23 18:02:54;;;;;;;7.00;6.30;;;;;;;;;;6166685;23;20020;-88
2023/12/23 18:22:59;;;;;;;;;;;;;;;;;;6160431;23;20039;-91
2023/12/23 18:29:30;;;;;;;3.85;3.55;;;;;;;;;;6129296;23;20045;-89
2023/12/23 18:39:16;;;;;;;4.07;3.78;;;;;;;;;;6127275;23;20021;-88
2023/12/23 18:45:31;;;;;;;7.60;6.72;;;;;;;;;;6126724;23;20009;-90
2023/12/23 18:51:45;;;;;;;5.70;5.15;;;;;;;;;;6128500;23;20049;-89
2023/12/23 19:05:44;;;;;;;6.80;6.20;;;;;;;;;;6155190;23;20371;-87
2023/12/23 19:12:38;;;;;;;5.50;4.38;;;;;;;;;;6123983;23;20081;-88
2023/12/23 19:30:13;;;;;;;8.98;6.90;;;;;;;;;;6130921;22;20157;-88
2023/12/23 19:32:57;;;;;;;8.73;7.07;;;;;;;;;;6221032;23;20041;-88
2023/12/23 19:35:43;;;;;;;11.95;7.00;;;;;;;;;;6213190;23;20016;-89
2023/12/23 19:46:15;;;;;;;7.20;3.63;;;;;;;;;;6128110;23;20367;-89
2023/12/23 19:49:06;;;;;;;6.20;4.00;;;;;;;;;;6210201;23;20127;-90
2023/12/23 19:51:50;;;;;;;4.40;3.60;;;;;;;;;;6223763;23;20019;-90
2023/12/23 19:54:35;;;;;;;7.32;3.72;;;;;;;;;;6207882;23;20094;-89
2023/12/23 20:08:01;;;;;;;5.32;3.40;;;;;;;;;;6127810;23;20088;-89
2023/12/23 20:10:45;;;;;;;5.05;3.55;;;;;;;;;;6219624;23;20039;-91
2023/12/23 20:13:34;;;;;;;9.13;4.53;;;;;;;;;;6217391;23;20017;-90
2023/12/23 20:19:51;;;;;;;8.90;3.80;;;;;;;;;;6128674;23;20070;-90
2023/12/23 21:34:48;;;;;;;9.30;4.97;;;;;;;;;;6292905;22;20023;-91
2023/12/23 22:28:29;;;;;;;;;;;;;;;;;;;;;
2023/12/23 23:03:30;;;;;;;2.70;1.70;;;;;;;;;;6218709;23;20011;-90
2023/12/23 23:35:14;;;;;;;1.63;1.30;;;;;;;;;;6125821;23;20530;-90
2023/12/23 23:38:07;;;;;;;1.20;1.10;;;;;;;;;;6104313;23;20060;-89
2023/12/23 23:44:32;;;;;;;1.20;1.10;;;;;;;;;;6125316;23;20040;-90
2023/12/23 23:47:19;;;;;;;1.17;1.08;;;;;;;;;;6105205;23;20021;-90
